createdAt,value
2017-07-02T00:00:31.133Z,35.90
2017-07-02T00:02:58.546Z,30.40
2017-07-02T00:05:25.942Z,25.97
2017-07-02T00:07:53.355Z,32.17
2017-07-02T00:10:20.748Z,43.60
2017-07-02T00:12:48.169Z,37.03
2017-07-02T00:15:15.567Z,27.63
2017-07-02T00:17:42.972Z,43.67
2017-07-02T00:20:10.375Z,35.57
2017-07-02T00:22:37.771Z,29.83
2017-07-02T00:25:05.176Z,33.20
2017-07-02T00:27:32.596Z,26.13
2017-07-02T00:29:59.995Z,28.47
2017-07-02T00:32:27.403Z,46.07
2017-07-02T00:34:54.803Z,31.07
2017-07-02T00:37:22.207Z,35.40
2017-07-02T00:39:49.617Z,35.17
2017-07-02T00:42:17.022Z,21.17
2017-07-02T00:44:44.431Z,35.20
2017-07-02T00:47:11.827Z,27.80
2017-07-02T00:49:39.240Z,27.17
2017-07-02T00:52:06.637Z,25.10
2017-07-02T00:54:34.082Z,29.13
2017-07-02T00:57:01.438Z,28.43
2017-07-02T00:59:28.847Z,24.00
2017-07-02T01:01:56.486Z,28.90
2017-07-02T01:04:23.890Z,27.30
2017-07-02T01:06:51.294Z,26.17
2017-07-02T01:09:18.695Z,29.23
2017-07-02T01:11:46.091Z,29.33
2017-07-02T01:14:13.495Z,26.23
2017-07-02T01:16:40.904Z,31.70
2017-07-02T01:19:08.299Z,20.70
2017-07-02T01:21:35.699Z,22.33
2017-07-02T01:24:03.103Z,18.77
2017-07-02T01:26:30.507Z,24.60
2017-07-02T01:28:57.907Z,30.33
2017-07-02T01:31:25.300Z,28.10
2017-07-02T01:33:52.707Z,22.87
2017-07-02T01:36:20.109Z,21.03
2017-07-02T01:38:47.520Z,24.03
2017-07-02T01:41:14.944Z,30.10
2017-07-02T01:43:42.338Z,25.87
2017-07-02T01:46:09.743Z,14.90
2017-07-02T01:48:37.375Z,16.53
2017-07-02T01:51:04.769Z,24.50
2017-07-02T01:53:32.167Z,33.27
2017-07-02T01:55:59.586Z,22.23
2017-07-02T01:58:26.979Z,19.13
2017-07-02T02:01:06.209Z,14.93
2017-07-02T02:03:33.607Z,18.27
2017-07-02T02:06:01.014Z,21.97
2017-07-02T02:08:28.403Z,26.63
2017-07-02T02:10:55.804Z,14.30
2017-07-02T02:13:23.204Z,35.73
2017-07-02T02:15:50.598Z,21.20
2017-07-02T02:18:17.990Z,13.87
2017-07-02T02:20:45.394Z,20.57
2017-07-02T02:23:12.790Z,25.37
2017-07-02T02:25:40.187Z,21.17
2017-07-02T02:28:07.638Z,31.90
2017-07-02T02:30:35.056Z,30.70
2017-07-02T02:33:02.455Z,33.43
2017-07-02T02:35:29.872Z,31.00
2017-07-02T02:37:57.278Z,33.53
2017-07-02T02:40:24.687Z,20.90
2017-07-02T02:42:52.097Z,25.27
2017-07-02T02:45:19.498Z,28.20
2017-07-02T02:47:46.911Z,25.30
2017-07-02T02:50:14.309Z,18.23
2017-07-02T02:52:41.705Z,19.60
2017-07-02T02:55:09.109Z,24.30
2017-07-02T02:57:36.499Z,20.83
2017-07-02T03:00:03.902Z,25.47
2017-07-02T03:02:31.298Z,26.93
2017-07-02T03:04:58.717Z,25.13
2017-07-02T03:07:26.115Z,18.60
2017-07-02T03:09:53.506Z,23.57
2017-07-02T03:12:20.911Z,21.83
2017-07-02T03:14:48.346Z,23.70
2017-07-02T03:17:15.765Z,19.13
2017-07-02T03:19:43.156Z,41.73
2017-07-02T03:22:10.562Z,23.47
2017-07-02T03:24:37.956Z,30.60
2017-07-02T03:27:05.355Z,28.03
2017-07-02T03:29:32.746Z,19.87
2017-07-02T03:32:00.150Z,24.13
2017-07-02T03:34:27.551Z,22.37
2017-07-02T03:36:54.956Z,25.20
2017-07-02T03:39:22.368Z,24.83
2017-07-02T03:41:49.766Z,25.90
2017-07-02T03:44:17.162Z,17.63
2017-07-02T03:46:44.564Z,16.53
2017-07-02T03:49:11.970Z,16.63
2017-07-02T03:51:39.380Z,33.27
2017-07-02T03:54:06.792Z,24.50
2017-07-02T03:56:34.195Z,34.07
2017-07-02T03:59:01.595Z,22.97
2017-07-02T04:01:29.006Z,26.40
2017-07-02T04:03:56.402Z,29.83
2017-07-02T04:06:24.066Z,31.57
2017-07-02T04:08:51.463Z,34.70
2017-07-02T04:11:18.871Z,26.30
2017-07-02T04:13:46.268Z,26.90
2017-07-02T04:16:13.679Z,21.73
2017-07-02T04:18:41.079Z,27.20
2017-07-02T04:21:08.471Z,28.63
2017-07-02T04:23:35.877Z,40.97
2017-07-02T04:26:03.271Z,34.07
2017-07-02T04:28:30.674Z,41.30
2017-07-02T04:30:58.083Z,28.43
2017-07-02T04:33:25.491Z,43.57
2017-07-02T04:35:52.883Z,35.17
2017-07-02T04:38:20.291Z,34.20
2017-07-02T04:40:47.846Z,43.50
2017-07-02T04:43:15.247Z,28.77
2017-07-02T04:45:42.652Z,27.53
2017-07-02T04:48:10.062Z,28.03
2017-07-02T04:50:37.457Z,32.27
2017-07-02T04:53:04.859Z,28.77
2017-07-02T04:55:32.263Z,39.63
2017-07-02T04:57:59.667Z,34.70
2017-07-02T05:00:27.127Z,37.03
2017-07-02T05:02:54.519Z,25.77
2017-07-02T05:05:21.923Z,34.87
2017-07-02T05:07:49.331Z,31.23
2017-07-02T05:10:16.736Z,24.03
2017-07-02T05:12:44.143Z,26.53
2017-07-02T05:15:11.542Z,27.37
2017-07-02T05:17:38.959Z,23.93
2017-07-02T05:20:06.352Z,24.07
2017-07-02T05:22:33.760Z,27.27
2017-07-02T05:25:01.162Z,34.60
2017-07-02T05:27:28.567Z,17.40
2017-07-02T05:29:55.971Z,34.83
2017-07-02T05:32:23.360Z,17.63
2017-07-02T05:34:50.759Z,25.93
2017-07-02T05:37:18.163Z,20.53
2017-07-02T05:39:45.562Z,23.03
2017-07-02T05:42:12.955Z,28.03
2017-07-02T05:44:40.354Z,20.73
2017-07-02T05:47:07.771Z,12.10
2017-07-02T05:49:35.207Z,16.47
2017-07-02T05:52:02.594Z,19.10
2017-07-02T05:54:29.998Z,16.03
2017-07-02T05:56:57.386Z,18.30
2017-07-02T05:59:24.787Z,18.63
2017-07-02T06:01:52.188Z,21.70
2017-07-02T06:04:19.595Z,25.40
2017-07-02T06:06:46.992Z,20.40
2017-07-02T06:09:14.395Z,20.67
2017-07-02T06:11:41.788Z,19.20
2017-07-02T06:14:09.188Z,16.13
2017-07-02T06:16:36.633Z,17.63
2017-07-02T06:19:04.034Z,14.77
2017-07-02T06:21:31.434Z,18.10
2017-07-02T06:23:58.846Z,17.30
2017-07-02T06:26:26.233Z,16.67
2017-07-02T06:28:53.635Z,23.33
2017-07-02T06:31:21.040Z,19.87
2017-07-02T06:33:48.431Z,16.77
2017-07-02T06:36:15.834Z,17.07
2017-07-02T06:38:44.099Z,19.33
2017-07-02T06:41:11.612Z,18.67
2017-07-02T06:43:39.021Z,14.10
2017-07-02T06:46:06.420Z,12.50
2017-07-02T06:48:34.059Z,19.00
2017-07-02T06:51:01.480Z,21.33
2017-07-02T06:53:28.965Z,19.60
2017-07-02T06:55:56.406Z,18.43
2017-07-02T06:58:23.805Z,21.27
2017-07-02T07:00:51.207Z,14.73
2017-07-02T07:03:18.598Z,18.27
2017-07-02T07:05:45.999Z,20.10
2017-07-02T07:08:13.394Z,20.67
2017-07-02T07:10:40.798Z,22.60
2017-07-02T07:13:08.199Z,16.43
2017-07-02T07:15:35.639Z,26.73
2017-07-02T07:18:03.027Z,17.97
2017-07-02T07:20:30.434Z,16.40
2017-07-02T07:22:57.826Z,16.23
2017-07-02T07:25:25.318Z,20.03
2017-07-02T07:27:52.684Z,19.83
2017-07-02T07:30:20.117Z,23.97
2017-07-02T07:32:47.522Z,15.20
2017-07-02T07:35:14.931Z,21.43
2017-07-02T07:37:42.370Z,24.93
2017-07-02T07:40:09.782Z,20.67
2017-07-02T07:42:37.216Z,21.80
2017-07-02T07:45:04.619Z,18.37
2017-07-02T07:47:32.011Z,14.77
2017-07-02T07:49:59.412Z,15.07
2017-07-02T07:52:26.852Z,21.33
2017-07-02T07:54:54.251Z,21.23
2017-07-02T07:57:21.704Z,15.50
2017-07-02T07:59:49.140Z,19.60
2017-07-02T08:02:16.777Z,17.40
2017-07-02T08:04:44.164Z,23.60
2017-07-02T08:07:11.571Z,16.37
2017-07-02T08:09:41.141Z,18.57
2017-07-02T08:12:09.376Z,13.53
2017-07-02T08:14:37.159Z,12.70
2017-07-02T08:17:04.558Z,13.30
2017-07-02T08:19:31.974Z,13.63
2017-07-02T08:21:59.365Z,15.83
2017-07-02T08:24:26.799Z,13.60
2017-07-02T08:26:54.223Z,25.17
2017-07-02T08:29:21.619Z,13.30
2017-07-02T08:31:49.039Z,20.93
2017-07-02T08:34:16.458Z,11.53
2017-07-02T08:36:43.911Z,21.60
2017-07-02T08:39:11.303Z,11.17
2017-07-02T08:41:38.706Z,19.40
2017-07-02T08:44:06.121Z,15.13
2017-07-02T08:46:33.511Z,24.10
2017-07-02T08:49:00.907Z,15.73
2017-07-02T08:51:28.341Z,11.50
2017-07-02T08:53:55.770Z,16.70
2017-07-02T08:56:23.175Z,12.20
2017-07-02T08:58:51.833Z,17.40
2017-07-02T09:01:19.234Z,17.33
2017-07-02T09:03:46.624Z,17.90
2017-07-02T09:06:14.035Z,12.07
2017-07-02T09:08:41.431Z,19.13
2017-07-02T09:11:08.856Z,19.80
2017-07-02T09:13:36.254Z,15.80
2017-07-02T09:16:03.662Z,15.77
2017-07-02T09:18:31.078Z,21.47
2017-07-02T09:20:58.475Z,18.43
2017-07-02T09:23:25.887Z,13.33
2017-07-02T09:25:53.291Z,19.53
2017-07-02T09:28:20.707Z,19.80
2017-07-02T09:30:48.107Z,14.17
2017-07-02T09:33:15.518Z,16.73
2017-07-02T09:35:42.911Z,14.00
2017-07-02T09:38:10.328Z,16.20
2017-07-02T09:40:37.971Z,22.83
2017-07-02T09:43:05.395Z,13.87
2017-07-02T09:45:32.799Z,16.07
2017-07-02T09:48:00.198Z,17.97
2017-07-02T09:50:27.868Z,16.87
2017-07-02T09:52:55.272Z,29.90
2017-07-02T09:55:22.667Z,18.47
2017-07-02T09:57:50.067Z,14.70
2017-07-02T10:00:17.468Z,22.80
2017-07-02T10:02:44.875Z,19.00
2017-07-02T10:05:12.290Z,25.53
2017-07-02T10:07:39.718Z,18.57
2017-07-02T10:10:07.112Z,16.27
2017-07-02T10:12:34.510Z,19.40
2017-07-02T10:15:01.907Z,19.47
2017-07-02T10:17:29.334Z,21.63
2017-07-02T10:19:56.736Z,16.97
2017-07-02T10:22:24.138Z,26.30
2017-07-02T10:24:51.551Z,18.60
2017-07-02T10:27:18.971Z,15.40
2017-07-02T10:29:46.374Z,19.17
2017-07-02T10:32:13.780Z,20.27
2017-07-02T10:34:41.195Z,20.70
2017-07-02T10:37:08.687Z,20.30
2017-07-02T10:39:36.078Z,20.77
2017-07-02T10:42:03.475Z,17.20
2017-07-02T10:44:30.878Z,31.37
2017-07-02T10:46:58.283Z,18.40
2017-07-02T10:49:25.692Z,18.43
2017-07-02T10:51:53.095Z,12.90
2017-07-02T10:54:20.500Z,17.50
2017-07-02T10:56:47.898Z,22.30
2017-07-02T10:59:15.303Z,31.87
2017-07-02T11:01:42.707Z,20.80
2017-07-02T11:04:10.366Z,23.30
2017-07-02T11:06:37.766Z,23.33
2017-07-02T11:09:05.171Z,24.50
2017-07-02T11:11:32.619Z,16.30
2017-07-02T11:14:00.016Z,10.83
2017-07-02T11:16:27.427Z,8.27
2017-07-02T11:18:54.820Z,7.20
2017-07-02T11:21:22.202Z,9.27
2017-07-02T11:23:49.603Z,7.40
2017-07-02T11:26:16.998Z,7.33
2017-07-02T11:28:44.395Z,6.73
2017-07-02T11:31:11.834Z,8.20
2017-07-02T11:33:39.219Z,8.83
2017-07-02T11:36:06.613Z,11.50
2017-07-02T11:38:34.020Z,10.40
2017-07-02T11:41:01.412Z,10.63
2017-07-02T11:43:28.795Z,9.17
2017-07-02T11:45:56.203Z,10.33
2017-07-02T11:48:23.596Z,11.77
2017-07-02T11:50:51.002Z,9.60
2017-07-02T11:53:18.395Z,11.60
2017-07-02T11:55:45.798Z,11.03
2017-07-02T11:58:13.218Z,12.50
2017-07-02T12:00:40.596Z,9.30
2017-07-02T12:03:07.997Z,15.70
2017-07-02T12:05:35.401Z,9.00
2017-07-02T12:08:02.791Z,8.73
2017-07-02T12:10:30.195Z,9.63
2017-07-02T12:12:57.594Z,18.30
2017-07-02T12:15:25.003Z,10.13
2017-07-02T12:17:52.399Z,10.00
2017-07-02T12:20:19.797Z,15.93
2017-07-02T12:22:48.176Z,11.80
2017-07-02T12:25:15.579Z,10.90
2017-07-02T12:27:43.287Z,11.67
2017-07-02T12:30:10.681Z,9.13
2017-07-02T12:32:38.083Z,14.80
2017-07-02T12:35:05.483Z,15.13
2017-07-02T12:37:32.870Z,8.97
2017-07-02T12:40:00.275Z,7.23
2017-07-02T12:42:27.695Z,8.63
2017-07-02T12:44:55.095Z,12.03
2017-07-02T12:47:22.483Z,9.33
2017-07-02T12:49:49.885Z,6.67
2017-07-02T12:52:17.275Z,11.13
2017-07-02T12:54:44.694Z,7.30
2017-07-02T12:57:12.089Z,10.17
2017-07-02T12:59:39.483Z,11.60
2017-07-02T13:02:07.095Z,9.03
2017-07-02T13:04:34.494Z,15.43
2017-07-02T13:07:01.890Z,10.17
2017-07-02T13:09:29.287Z,11.40
2017-07-02T13:11:56.683Z,14.20
2017-07-02T13:14:24.068Z,6.70
2017-07-02T13:16:51.458Z,5.83
2017-07-02T13:19:18.857Z,5.43
2017-07-02T13:21:46.253Z,7.57
2017-07-02T13:24:13.655Z,5.07
2017-07-02T13:26:41.067Z,4.77
2017-07-02T13:29:08.460Z,5.00
2017-07-02T13:31:35.851Z,5.07
2017-07-02T13:34:03.248Z,8.83
2017-07-02T13:36:30.943Z,8.00
2017-07-02T13:38:58.324Z,11.20
2017-07-02T13:41:25.954Z,7.93
2017-07-02T13:43:54.099Z,5.40
2017-07-02T13:46:21.507Z,3.17
2017-07-02T13:48:48.902Z,9.93
2017-07-02T13:51:16.305Z,5.27
2017-07-02T13:53:43.699Z,5.00
2017-07-02T13:56:11.103Z,4.30
2017-07-02T13:58:38.504Z,3.90
2017-07-02T14:01:05.905Z,2.13
2017-07-02T14:03:33.291Z,8.83
2017-07-02T14:06:00.688Z,2.63
2017-07-02T14:08:28.071Z,8.03
2017-07-02T14:10:55.478Z,8.97
2017-07-02T14:13:22.877Z,3.83
2017-07-02T14:15:50.268Z,11.07
2017-07-02T14:18:17.670Z,4.07
2017-07-02T14:20:45.215Z,2.77
2017-07-02T14:23:12.615Z,3.57
2017-07-02T14:25:40.011Z,2.50
2017-07-02T14:28:07.447Z,2.40
2017-07-02T14:30:34.835Z,4.07
2017-07-02T14:33:02.234Z,5.00
2017-07-02T14:35:29.624Z,3.93
2017-07-02T14:37:57.040Z,4.03
2017-07-02T14:40:24.431Z,13.20
2017-07-02T14:42:51.835Z,5.37
2017-07-02T14:45:19.223Z,6.93
2017-07-02T14:47:46.619Z,7.67
2017-07-02T14:50:14.010Z,6.57
2017-07-02T14:52:41.407Z,6.40
2017-07-02T14:55:08.817Z,3.53
2017-07-02T14:57:36.199Z,7.03
2017-07-02T15:00:03.595Z,7.93
2017-07-02T15:02:30.998Z,6.33
2017-07-02T15:04:58.386Z,3.53
2017-07-02T15:07:25.785Z,4.67
2017-07-02T15:09:53.171Z,7.73
2017-07-02T15:12:20.574Z,4.73
2017-07-02T15:14:48.009Z,5.17
2017-07-02T15:17:15.415Z,7.67
2017-07-02T15:19:42.811Z,18.90
2017-07-02T15:22:10.200Z,8.20
2017-07-02T15:24:37.627Z,11.53
2017-07-02T15:27:05.020Z,6.30
2017-07-02T15:29:32.411Z,4.90
2017-07-02T15:31:59.813Z,9.63
2017-07-02T15:34:27.208Z,5.30
2017-07-02T15:36:54.614Z,3.47
2017-07-02T15:39:22.011Z,6.07
2017-07-02T15:41:49.616Z,5.73
2017-07-02T15:44:17.015Z,5.07
2017-07-02T15:46:44.404Z,13.93
2017-07-02T15:49:11.815Z,13.63
2017-07-02T15:51:39.213Z,8.70
2017-07-02T15:54:06.619Z,11.20
2017-07-02T15:56:34.010Z,9.93
2017-07-02T15:59:01.410Z,8.07
2017-07-02T16:01:28.803Z,11.60
2017-07-02T16:03:56.207Z,16.17
2017-07-02T16:06:23.602Z,11.70
2017-07-02T16:08:51.019Z,9.73
2017-07-02T16:11:18.412Z,14.77
2017-07-02T16:13:45.808Z,10.53
2017-07-02T16:16:13.204Z,20.47
2017-07-02T16:18:40.596Z,14.30
2017-07-02T16:21:08.035Z,9.17
2017-07-02T16:23:35.438Z,6.10
2017-07-02T16:26:02.851Z,12.93
2017-07-02T16:28:30.251Z,8.00
2017-07-02T16:30:57.635Z,8.10
2017-07-02T16:33:25.023Z,5.73
2017-07-02T16:35:52.419Z,4.30
2017-07-02T16:38:19.819Z,14.00
2017-07-02T16:40:47.220Z,11.80
2017-07-02T16:43:14.614Z,10.60
2017-07-02T16:45:42.007Z,5.63
2017-07-02T16:48:09.403Z,14.00
2017-07-02T16:50:36.803Z,5.10
2017-07-02T16:53:04.211Z,6.17
2017-07-02T16:55:31.610Z,4.93
2017-07-02T16:57:59.002Z,2.90
2017-07-02T17:00:26.412Z,3.77
2017-07-02T17:02:53.800Z,4.10
2017-07-02T17:05:21.208Z,8.20
2017-07-02T17:07:48.604Z,10.53
2017-07-02T17:10:16.007Z,8.90
2017-07-02T17:12:43.399Z,10.77
2017-07-02T17:15:10.806Z,6.93
2017-07-02T17:17:38.195Z,11.63
2017-07-02T17:20:05.604Z,6.80
2017-07-02T17:22:32.993Z,9.47
2017-07-02T17:25:00.386Z,6.40
2017-07-02T17:27:27.785Z,6.30
2017-07-02T17:29:55.188Z,4.40
2017-07-02T17:32:22.890Z,8.87
2017-07-02T17:34:50.499Z,5.80
2017-07-02T17:37:18.116Z,8.10
2017-07-02T17:39:45.506Z,9.23
2017-07-02T17:42:12.906Z,4.07
2017-07-02T17:44:40.579Z,8.77
2017-07-02T17:47:08.002Z,10.30
2017-07-02T17:49:35.403Z,2.83
2017-07-02T17:52:02.803Z,3.23
2017-07-02T17:54:34.187Z,4.37
2017-07-02T17:57:01.643Z,10.53
2017-07-02T17:59:29.039Z,8.93
2017-07-02T18:01:56.450Z,4.20
2017-07-02T18:04:23.852Z,5.43
2017-07-02T18:06:51.244Z,6.77
2017-07-02T18:09:18.824Z,3.57
2017-07-02T18:11:46.695Z,7.90
2017-07-02T18:14:14.094Z,10.63
2017-07-02T18:16:41.871Z,5.83
2017-07-02T18:19:10.508Z,6.03
2017-07-02T18:21:50.079Z,7.20
2017-07-02T18:24:17.694Z,2.67
2017-07-02T18:26:45.090Z,7.03
2017-07-02T18:29:12.474Z,7.30
2017-07-02T18:31:39.887Z,5.07
2017-07-02T18:34:07.263Z,9.83
2017-07-02T18:36:34.659Z,4.20
2017-07-02T18:39:02.057Z,4.87
2017-07-02T18:41:29.502Z,11.43
2017-07-02T18:43:56.887Z,9.30
2017-07-02T18:46:24.286Z,9.80
2017-07-02T18:48:51.674Z,5.80
2017-07-02T18:51:19.071Z,4.60
2017-07-02T18:53:46.455Z,9.63
2017-07-02T18:56:13.847Z,4.13
2017-07-02T18:58:41.235Z,7.90
2017-07-02T19:01:08.639Z,8.73
2017-07-02T19:03:36.031Z,5.13
2017-07-02T19:06:03.460Z,6.87
2017-07-02T19:08:30.855Z,3.33
2017-07-02T19:10:58.276Z,14.63
2017-07-02T19:13:25.663Z,12.13
2017-07-02T19:15:53.074Z,8.70
2017-07-02T19:18:20.470Z,3.33
2017-07-02T19:20:47.870Z,3.00
2017-07-02T19:23:15.270Z,7.63
2017-07-02T19:25:42.663Z,4.97
2017-07-02T19:28:10.072Z,8.67
2017-07-02T19:30:37.471Z,8.83
2017-07-02T19:33:04.871Z,6.07
2017-07-02T19:35:32.283Z,3.43
2017-07-02T19:37:59.679Z,6.30
2017-07-02T19:40:27.117Z,5.70
2017-07-02T19:42:54.499Z,13.93
2017-07-02T19:45:21.891Z,5.23
2017-07-02T19:47:49.291Z,9.10
2017-07-02T19:50:16.683Z,7.90
2017-07-02T19:52:44.087Z,6.80
2017-07-02T19:55:11.475Z,15.23
2017-07-02T19:57:38.888Z,9.03
2017-07-02T20:00:06.277Z,10.00
2017-07-02T20:02:33.683Z,4.50
2017-07-02T20:05:01.101Z,12.70
2017-07-02T20:07:28.529Z,13.73
2017-07-02T20:09:55.923Z,8.93
2017-07-02T20:12:23.338Z,8.17
2017-07-02T20:14:50.734Z,9.83
2017-07-02T20:17:18.154Z,4.83
2017-07-02T20:19:45.556Z,7.90
2017-07-02T20:22:12.953Z,18.57
2017-07-02T20:24:40.351Z,11.40
2017-07-02T20:27:07.752Z,8.87
2017-07-02T20:29:35.148Z,13.20
2017-07-02T20:32:02.546Z,18.93
2017-07-02T20:34:29.938Z,8.80
2017-07-02T20:39:31.215Z,8.70
2017-07-02T20:41:58.619Z,16.97
2017-07-02T20:44:26.016Z,11.70
2017-07-02T20:46:53.416Z,12.57
2017-07-02T20:49:20.811Z,17.50
2017-07-02T20:51:48.203Z,11.80
2017-07-02T20:54:15.607Z,10.60
2017-07-02T20:56:42.995Z,6.53
2017-07-02T20:59:10.395Z,9.17
2017-07-02T21:01:37.784Z,13.77
2017-07-02T21:04:05.455Z,10.77
2017-07-02T21:06:32.875Z,10.97
2017-07-02T21:09:00.258Z,15.50
2017-07-02T21:11:27.659Z,12.47
2017-07-02T21:13:55.065Z,8.70
2017-07-02T21:16:22.454Z,7.13
2017-07-02T21:18:49.862Z,10.43
2017-07-02T21:21:17.251Z,6.50
2017-07-02T21:23:44.658Z,10.30
2017-07-02T21:26:12.043Z,8.80
2017-07-02T21:28:39.451Z,12.13
2017-07-02T21:31:06.841Z,6.53
2017-07-02T21:33:34.243Z,8.63
2017-07-02T21:36:01.636Z,9.87
2017-07-02T21:38:29.032Z,15.43
2017-07-02T21:40:56.437Z,10.20
2017-07-02T21:43:23.827Z,5.00
2017-07-02T21:45:51.235Z,17.13
2017-07-02T21:48:18.691Z,12.20
2017-07-02T21:50:46.087Z,5.50
2017-07-02T21:53:13.773Z,13.87
2017-07-02T21:55:41.178Z,10.90
2017-07-02T21:58:08.571Z,13.27
2017-07-02T22:00:35.975Z,11.20
2017-07-02T22:03:03.423Z,8.80
2017-07-02T22:05:30.827Z,14.13
2017-07-02T22:07:58.223Z,9.37
2017-07-02T22:10:25.625Z,10.20
2017-07-02T22:12:53.007Z,5.07
2017-07-02T22:15:20.415Z,11.40
2017-07-02T22:17:47.799Z,10.00
2017-07-02T22:20:15.198Z,6.93
2017-07-02T22:22:42.591Z,7.40
2017-07-02T22:25:09.987Z,9.37
2017-07-02T22:27:37.387Z,5.80
2017-07-02T22:30:04.780Z,8.23
2017-07-02T22:32:32.180Z,12.50
2017-07-02T22:34:59.575Z,4.17
2017-07-02T22:37:26.966Z,7.57
2017-07-02T22:39:54.363Z,7.30
2017-07-02T22:42:21.755Z,4.27
2017-07-02T22:44:49.155Z,12.33
2017-07-02T22:47:16.540Z,6.77
2017-07-02T22:49:43.980Z,9.43
2017-07-02T22:52:11.371Z,10.43
2017-07-02T22:54:38.764Z,8.47
2017-07-02T22:57:06.168Z,6.77
2017-07-02T22:59:33.555Z,6.20
2017-07-02T23:02:00.954Z,8.27
2017-07-02T23:04:28.338Z,3.50
2017-07-02T23:06:55.747Z,7.13
2017-07-02T23:09:23.141Z,12.20
2017-07-02T23:11:50.543Z,10.90
2017-07-02T23:14:17.974Z,9.77
2017-07-02T23:16:45.362Z,12.63
2017-07-02T23:19:12.761Z,8.87
2017-07-02T23:21:40.168Z,10.00
2017-07-02T23:24:07.561Z,10.23
2017-07-02T23:26:34.959Z,10.03
2017-07-02T23:29:02.361Z,13.20
2017-07-02T23:31:29.776Z,13.97
2017-07-02T23:33:57.169Z,8.83
2017-07-02T23:36:24.567Z,16.97
2017-07-02T23:38:51.958Z,5.40
2017-07-02T23:41:19.371Z,6.33
2017-07-02T23:43:46.776Z,10.27
2017-07-02T23:46:14.419Z,8.03
2017-07-02T23:48:42.083Z,10.40
2017-07-02T23:51:09.508Z,11.00
2017-07-02T23:53:36.900Z,8.50
2017-07-02T23:56:04.547Z,5.40
2017-07-02T23:58:31.951Z,9.17
